ドバイ の空港の天気 - METARとTAF

ドバイ国際空港 ( OMDB / DXB ) - アラブ首長国連邦 ドバイ
飛行場実況気象(Metar)
観測時間11/30 14:00 GST (11/30 10:00 UTC)
風向・風速北 6m/s
視程10km以上
天気現象
少しの雲 雲底高度 1370m
気温28℃
湿度51%
気圧1015hPa
METAROMDB 301000Z 35011KT 9999 FEW045 28/17 Q1015 NOSIG
過去の天気等 Google飛行場航空写真 Wunderground天気予報

過去48時間のMETAR

飛行場予報(TAF)
発表時間: 11/30 09:00 GST (11/30 05:00 UTC)
予報対象時間: 30日10時 GST ~ 1日16時 GST
風向・風速南南東 3m/s
視程10km以上
なし
30日13時 GST ~ 30日15時 GST に徐々に
風向・風速北北西 5m/s
30日19時 GST ~ 30日21時 GST に徐々に
風向・風速東南東 3m/s
1日13時 GST ~ 1日15時 GST に徐々に
風向・風速北北西 5m/s
TAF OMDB 300500Z 3006/0112 16005KT CAVOK
BECMG 3009/3011 33010KT
BECMG 3015/3017 12005KT
BECMG 0109/0111 34010KT